Time;durP1;ratioP1;P1;durP2;ratioP2;P2;SDS_P1;SDS_P2;PMS_P1;PMS_P2;Temp;Humidity;BMP_temperature;BMP_pressure;BME280_temperature;BME280_humidity;BME280_pressure;Samples;Min_cycle;Max_cycle;Signal;HPM_P1;HPM_P2
2021/04/27 00:00:04;;;;;;;0.40;0.40;;;1.20;99.90;;;;;;5092211;28;20204;-84
2021/04/27 00:02:30;;;;;;;0.40;0.40;;;1.20;99.90;;;;;;5093236;28;20199;-83
2021/04/27 00:04:55;;;;;;;0.30;0.30;;;1.10;99.90;;;;;;5110931;28;20192;-85
2021/04/27 00:07:21;;;;;;;0.60;0.40;;;1.10;99.90;;;;;;5092889;28;20195;-83
2021/04/27 00:09:47;;;;;;;0.40;0.40;;;1.10;99.90;;;;;;5089524;28;20284;-84
2021/04/27 00:12:13;;;;;;;0.50;0.40;;;1.10;99.90;;;;;;5092277;28;20265;-83
2021/04/27 00:14:39;;;;;;;0.40;0.40;;;1.20;99.90;;;;;;5114277;28;20184;-82
2021/04/27 00:17:05;;;;;;;3.43;0.60;;;1.30;99.90;;;;;;5114955;27;20204;-81
2021/04/27 00:19:31;;;;;;;0.80;0.60;;;1.40;99.90;;;;;;5095700;28;20275;-84
2021/04/27 00:21:56;;;;;;;1.20;0.30;;;1.50;99.90;;;;;;5096423;28;20564;-82
2021/04/27 00:24:22;;;;;;;0.43;0.40;;;1.60;99.90;;;;;;5095716;28;20207;-83
2021/04/27 00:26:48;;;;;;;0.63;0.40;;;1.60;99.90;;;;;;5114493;27;20562;-84
2021/04/27 00:29:13;;;;;;;0.93;0.60;;;1.60;99.90;;;;;;5095369;28;20188;-84
2021/04/27 00:31:39;;;;;;;0.60;0.33;;;1.60;99.90;;;;;;5092554;28;21115;-82
2021/04/27 00:34:05;;;;;;;0.20;0.20;;;1.70;99.90;;;;;;5095883;28;20206;-83
2021/04/27 00:36:30;;;;;;;0.87;0.40;;;1.70;99.90;;;;;;5096369;28;20180;-85
2021/04/27 00:38:57;;;;;;;1.97;1.07;;;1.80;99.90;;;;;;5095636;28;20557;-85
2021/04/27 00:41:23;;;;;;;0.40;0.30;;;1.90;99.90;;;;;;5095555;27;20339;-85
2021/04/27 00:43:48;;;;;;;0.30;0.30;;;1.90;99.90;;;;;;5095462;28;20227;-84
2021/04/27 00:46:14;;;;;;;0.27;0.27;;;2.00;99.90;;;;;;5114597;27;20203;-85
2021/04/27 00:48:40;;;;;;;0.67;0.50;;;2.00;99.90;;;;;;5114168;27;20180;-85
2021/04/27 00:51:05;;;;;;;0.10;0.10;;;2.00;99.90;;;;;;5093874;27;20211;-82
2021/04/27 00:53:31;;;;;;;0.97;0.90;;;1.90;99.90;;;;;;5091942;28;20272;-85
2021/04/27 00:55:58;;;;;;;0.87;0.40;;;1.80;99.90;;;;;;5109658;28;20245;-82
2021/04/27 00:58:26;;;;;;;0.30;0.27;;;1.70;99.90;;;;;;5091933;28;20180;-82
2021/04/27 01:00:52;;;;;;;0.30;0.30;;;1.30;99.90;;;;;;5111553;28;20253;-82
2021/04/27 01:03:18;;;;;;;0.50;0.50;;;0.70;99.90;;;;;;5094920;28;20259;-83
2021/04/27 01:05:44;;;;;;;0.60;0.40;;;0.30;99.90;;;;;;5094852;28;20256;-84
2021/04/27 01:08:31;;;;;;;0.83;0.50;;;0.30;99.90;;;;;;5094048;28;20226;-84
2021/04/27 01:11:23;;;;;;;0.20;0.20;;;0.20;99.90;;;;;;5093399;28;20697;-83
2021/04/27 01:14:15;;;;;;;0.40;0.40;;;0.10;99.90;;;;;;5094446;28;20225;-81
2021/04/27 01:16:49;;;;;;;0.80;0.30;;;0.20;99.90;;;;;;5094237;28;20598;-85
2021/04/27 01:19:23;;;;;;;0.40;0.40;;;0.30;99.90;;;;;;5093831;28;21355;-84
2021/04/27 01:21:49;;;;;;;0.37;0.33;;;0.20;99.90;;;;;;5094418;28;20211;-84
2021/04/27 01:24:42;;;;;;;0.60;0.30;;;0.10;99.90;;;;;;5094729;28;20578;-84
2021/04/27 01:27:08;;;;;;;0.47;0.43;;;-0.20;99.90;;;;;;5094123;28;20188;-85
2021/04/27 01:29:35;;;;;;;0.90;0.77;;;-0.40;99.90;;;;;;5094878;28;20194;-85
2021/04/27 01:32:04;;;;;;;0.47;0.47;;;-0.40;99.90;;;;;;5094209;28;20215;-83
2021/04/27 01:34:35;;;;;;;0.30;0.30;;;-0.50;99.90;;;;;;5094952;28;20633;-82
2021/04/27 01:37:04;;;;;;;0.63;0.63;;;-0.60;99.90;;;;;;5094161;28;20184;-82
2021/04/27 01:39:30;;;;;;;0.30;0.30;;;-0.60;99.90;;;;;;5085100;28;20220;-82
2021/04/27 01:42:02;;;;;;;0.50;0.50;;;-0.60;99.90;;;;;;5094081;28;20200;-80
2021/04/27 01:44:31;;;;;;;0.83;0.60;;;-0.70;99.90;;;;;;5112303;27;20551;-84
2021/04/27 01:46:57;;;;;;;0.43;0.40;;;-0.60;99.90;;;;;;5110460;27;20559;-85
2021/04/27 01:49:24;;;;;;;9.00;0.50;;;-0.60;99.90;;;;;;5112083;27;21507;-81
2021/04/27 01:51:52;;;;;;;0.30;0.30;;;-0.70;99.90;;;;;;5091961;28;20211;-84
2021/04/27 01:54:24;;;;;;;0.30;0.20;;;-0.70;99.90;;;;;;5112250;27;20632;-80
2021/04/27 01:56:50;;;;;;;0.37;0.37;;;-0.70;99.90;;;;;;5092182;28;20188;-79
2021/04/27 01:59:15;;;;;;;0.30;0.30;;;-0.50;99.90;;;;;;5092905;27;20316;-82
2021/04/27 02:01:41;;;;;;;0.40;0.30;;;-0.50;99.90;;;;;;5091817;28;20201;-86
2021/04/27 02:04:06;;;;;;;0.50;0.50;;;-0.40;99.90;;;;;;5091755;28;20714;-81
2021/04/27 02:06:32;;;;;;;0.30;0.30;;;-0.40;99.90;;;;;;5092054;28;20195;-84
2021/04/27 02:09:06;;;;;;;0.30;0.30;;;-0.50;99.90;;;;;;5109908;28;20193;-81
2021/04/27 02:11:38;;;;;;;0.53;0.37;;;-0.50;99.90;;;;;;5092363;28;20231;-82
2021/04/27 02:14:06;;;;;;;0.70;0.70;;;-0.50;99.90;;;;;;5091519;28;20641;-84
2021/04/27 02:16:42;;;;;;;0.20;0.20;;;-0.40;99.90;;;;;;5110695;28;20303;-81
2021/04/27 02:19:09;;;;;;;0.57;0.30;;;-0.40;99.90;;;;;;5109811;28;20278;-81
2021/04/27 02:21:35;;;;;;;0.37;0.23;;;-0.50;99.90;;;;;;5091312;28;20629;-82
2021/04/27 02:24:01;;;;;;;0.40;0.40;;;-0.50;99.90;;;;;;5112854;27;20184;-82
2021/04/27 02:26:29;;;;;;;0.30;0.30;;;-0.50;99.90;;;;;;5096658;28;20209;-82
2021/04/27 02:28:55;;;;;;;1.70;0.53;;;-0.60;99.90;;;;;;5096746;28;20245;-81
2021/04/27 02:31:22;;;;;;;0.27;0.27;;;-0.50;99.90;;;;;;5114848;28;20215;-81
2021/04/27 02:33:48;;;;;;;0.50;0.30;;;-0.60;99.90;;;;;;5096503;28;20207;-82
2021/04/27 02:36:13;;;;;;;0.50;0.40;;;-0.70;99.90;;;;;;5094011;28;20184;-82
2021/04/27 02:38:42;;;;;;;0.50;0.50;;;-0.60;99.90;;;;;;5094787;28;20668;-84
2021/04/27 02:41:07;;;;;;;0.30;0.20;;;-0.70;99.90;;;;;;5094488;27;20211;-82
2021/04/27 02:43:37;;;;;;;0.43;0.43;;;-0.80;99.90;;;;;;5095293;28;21158;-82
2021/04/27 02:46:03;;;;;;;0.40;0.40;;;-0.90;99.90;;;;;;5109424;28;20266;-82
2021/04/27 02:48:28;;;;;;;2.90;0.47;;;-1.00;99.90;;;;;;5091302;28;20655;-81
2021/04/27 02:50:59;;;;;;;0.60;0.60;;;-0.90;99.90;;;;;;5091104;28;20226;-83
2021/04/27 02:53:25;;;;;;;0.50;0.50;;;-0.70;99.90;;;;;;5108750;28;20253;-81
2021/04/27 02:55:51;;;;;;;0.40;0.30;;;-0.80;99.90;;;;;;5091516;28;20181;-81
2021/04/27 02:58:18;;;;;;;0.40;0.40;;;-0.80;99.90;;;;;;5109873;28;20241;-82
2021/04/27 03:00:45;;;;;;;0.30;0.30;;;-1.00;99.90;;;;;;5087533;28;20196;-79
2021/04/27 03:03:11;;;;;;;1.97;0.90;;;-1.10;99.90;;;;;;5090582;28;20184;-83
2021/04/27 03:05:38;;;;;;;0.37;0.30;;;-1.10;99.90;;;;;;5108498;28;20184;-81
2021/04/27 03:08:05;;;;;;;0.80;0.40;;;-1.10;99.90;;;;;;5090751;28;20184;-83
2021/04/27 03:10:31;;;;;;;0.50;0.50;;;-1.00;99.90;;;;;;5091200;28;20176;-81
2021/04/27 03:12:56;;;;;;;2.00;1.23;;;-1.10;99.90;;;;;;5090254;28;20208;-81
2021/04/27 03:15:22;;;;;;;0.30;0.30;;;-1.10;99.90;;;;;;5090752;28;20196;-82
2021/04/27 03:17:48;;;;;;;0.30;0.30;;;-1.10;99.90;;;;;;5090632;28;20248;-81
2021/04/27 03:20:15;;;;;;;0.70;0.50;;;-1.10;99.90;;;;;;5110315;28;20229;-81
2021/04/27 03:22:41;;;;;;;0.43;0.40;;;-1.10;99.90;;;;;;5109002;28;20216;-82
2021/04/27 03:25:08;;;;;;;0.70;0.70;;;-1.20;99.90;;;;;;5108973;28;20192;-82
2021/04/27 03:27:34;;;;;;;0.30;0.30;;;-1.20;99.90;;;;;;5091518;28;20176;-80
2021/04/27 03:30:00;;;;;;;0.50;0.40;;;-1.30;99.90;;;;;;5092226;28;20191;-80
2021/04/27 03:32:26;;;;;;;0.97;0.90;;;-1.20;99.90;;;;;;5109844;28;20219;-80
2021/04/27 03:34:52;;;;;;;0.93;0.60;;;-1.20;99.90;;;;;;5089865;28;20186;-81
2021/04/27 03:37:18;;;;;;;0.30;0.30;;;-1.30;99.90;;;;;;5091157;28;20275;-82
2021/04/27 03:39:44;;;;;;;0.90;0.80;;;-1.20;99.90;;;;;;5109129;28;20313;-82
2021/04/27 03:42:09;;;;;;;0.57;0.57;;;-1.20;99.90;;;;;;5109176;28;20207;-79
2021/04/27 03:44:35;;;;;;;0.40;0.40;;;-1.20;99.90;;;;;;5090691;28;20180;-82
2021/04/27 03:47:01;;;;;;;0.87;0.57;;;-1.30;99.90;;;;;;5091232;28;20537;-81
2021/04/27 03:49:27;;;;;;;0.40;0.40;;;-1.40;99.90;;;;;;5094028;28;20225;-80
2021/04/27 03:51:52;;;;;;;0.40;0.40;;;-1.20;99.90;;;;;;5095590;28;20263;-83
2021/04/27 03:54:18;;;;;;;0.40;0.40;;;-1.30;99.90;;;;;;5116193;27;20210;-82
2021/04/27 03:56:44;;;;;;;0.30;0.30;;;-1.40;99.90;;;;;;5097042;28;20300;-82
2021/04/27 03:59:10;;;;;;;0.40;0.40;;;-1.40;99.90;;;;;;5097535;28;20212;-82
2021/04/27 04:01:37;;;;;;;0.53;0.53;;;-1.50;99.90;;;;;;5096537;28;20207;-82
2021/04/27 04:04:03;;;;;;;0.87;0.70;;;-1.40;99.90;;;;;;5114120;28;20176;-82
2021/04/27 04:06:28;;;;;;;0.50;0.50;;;-1.40;99.90;;;;;;5113694;28;20527;-82
2021/04/27 04:08:54;;;;;;;0.93;0.60;;;-1.30;99.90;;;;;;5113149;28;20215;-83
2021/04/27 04:11:20;;;;;;;0.40;0.30;;;-1.30;99.90;;;;;;5095424;28;20211;-83
2021/04/27 04:13:46;;;;;;;0.40;0.40;;;-1.30;99.90;;;;;;5096024;28;20264;-81
2021/04/27 04:16:11;;;;;;;0.60;0.60;;;-1.40;99.90;;;;;;5112867;28;20257;-81
2021/04/27 04:18:37;;;;;;;1.17;0.60;;;-1.40;99.90;;;;;;5112499;27;20724;-81
2021/04/27 04:21:03;;;;;;;0.77;0.70;;;-1.40;99.90;;;;;;5092832;28;20207;-81
2021/04/27 04:23:29;;;;;;;0.40;0.40;;;-1.40;99.90;;;;;;5113298;28;20611;-82
2021/04/27 04:25:55;;;;;;;0.40;0.40;;;-1.30;99.90;;;;;;5096967;28;20235;-81
2021/04/27 04:28:21;;;;;;;0.40;0.30;;;-1.30;99.90;;;;;;5116552;27;20222;-82
2021/04/27 04:30:47;;;;;;;0.40;0.40;;;-1.20;99.90;;;;;;5115555;27;20208;-82
2021/04/27 04:33:13;;;;;;;1.57;0.90;;;-1.20;99.90;;;;;;5116409;27;20207;-83
2021/04/27 04:35:38;;;;;;;0.53;0.40;;;-1.00;99.90;;;;;;5114573;27;20645;-82
2021/04/27 04:38:04;;;;;;;0.40;0.40;;;-0.90;99.90;;;;;;5114731;28;20182;-81
2021/04/27 04:40:30;;;;;;;2.73;0.40;;;-0.80;99.90;;;;;;5113228;27;20187;-82
2021/04/27 04:42:56;;;;;;;0.50;0.50;;;-0.70;99.90;;;;;;5113148;27;20215;-81
2021/04/27 04:45:25;;;;;;;0.43;0.43;;;-0.70;99.90;;;;;;5115776;27;20190;-81
2021/04/27 04:47:51;;;;;;;1.67;0.47;;;-0.50;99.90;;;;;;5097637;28;20196;-82
2021/04/27 04:50:17;;;;;;;0.30;0.30;;;0.00;99.90;;;;;;5097492;28;20198;-82
2021/04/27 04:52:43;;;;;;;0.30;0.30;;;0.40;99.90;;;;;;5097508;28;20200;-82
2021/04/27 04:55:09;;;;;;;0.80;0.43;;;0.80;99.90;;;;;;5096626;28;20184;-82
2021/04/27 04:57:36;;;;;;;1.17;0.50;;;1.20;99.90;;;;;;5097956;28;20733;-81
2021/04/27 05:00:04;;;;;;;1.00;0.70;;;2.30;99.90;;;;;;5115250;28;20180;-82
2021/04/27 05:02:30;;;;;;;0.40;0.40;;;3.40;99.90;;;;;;5116190;27;20251;-81
2021/04/27 05:04:55;;;;;;;0.33;0.33;;;4.30;99.90;;;;;;5116683;27;20237;-83
2021/04/27 05:07:23;;;;;;;1.33;0.70;;;4.80;99.90;;;;;;5116837;27;20202;-82
2021/04/27 05:09:49;;;;;;;0.77;0.60;;;5.50;99.90;;;;;;5097134;28;20196;-83
2021/04/27 05:12:14;;;;;;;0.80;0.80;;;5.90;99.90;;;;;;5114363;27;20273;-82
2021/04/27 05:14:41;;;;;;;0.43;0.40;;;6.20;99.90;;;;;;5114208;28;20176;-83
2021/04/27 05:17:08;;;;;;;0.63;0.63;;;6.50;99.90;;;;;;5113909;27;20192;-82
2021/04/27 05:19:34;;;;;;;0.93;0.73;;;6.80;99.90;;;;;;5094376;28;20240;-83
2021/04/27 05:22:04;;;;;;;0.63;0.63;;;7.10;99.90;;;;;;5095788;28;20636;-82
2021/04/27 05:24:30;;;;;;;0.63;0.50;;;7.10;99.90;;;;;;5102515;28;20938;-82
2021/04/27 05:26:56;;;;;;;1.30;0.70;;;7.10;99.90;;;;;;5089298;28;20219;-84
2021/04/27 05:29:22;;;;;;;0.87;0.57;;;7.70;99.90;;;;;;5093292;28;20237;-84
2021/04/27 05:31:48;;;;;;;0.77;0.77;;;7.90;99.90;;;;;;5094434;28;20259;-82
2021/04/27 05:34:15;;;;;;;0.83;0.60;;;8.10;99.90;;;;;;5111847;27;20176;-84
2021/04/27 05:36:41;;;;;;;0.47;0.40;;;8.10;99.90;;;;;;5093044;28;20244;-83
2021/04/27 05:39:07;;;;;;;0.87;0.67;;;7.90;99.90;;;;;;5090813;28;20188;-82
2021/04/27 05:41:32;;;;;;;0.97;0.60;;;8.00;99.90;;;;;;5091847;28;20263;-83
2021/04/27 05:43:58;;;;;;;0.80;0.80;;;8.50;99.90;;;;;;5094099;28;20188;-82
2021/04/27 05:46:23;;;;;;;0.63;0.63;;;9.10;99.90;;;;;;5113161;27;20226;-84
2021/04/27 05:48:49;;;;;;;2.00;0.70;;;9.40;99.90;;;;;;5113282;27;20196;-83
2021/04/27 05:51:14;;;;;;;0.87;0.77;;;9.80;99.90;;;;;;5094273;28;20212;-83
2021/04/27 05:53:40;;;;;;;0.80;0.70;;;9.70;99.90;;;;;;5112358;27;20204;-83
2021/04/27 05:56:06;;;;;;;1.08;1.08;;;9.80;99.90;;;;;;5112876;27;20180;-83
2021/04/27 05:58:31;;;;;;;1.15;0.95;;;9.70;99.90;;;;;;5088974;28;20175;-84
2021/04/27 06:00:57;;;;;;;0.85;0.80;;;9.50;99.90;;;;;;5093485;28;20204;-84
2021/04/27 06:03:23;;;;;;;3.42;1.10;;;9.60;99.90;;;;;;5112153;28;20662;-83
2021/04/27 06:05:48;;;;;;;1.20;0.90;;;9.30;99.90;;;;;;5092820;28;20751;-83
2021/04/27 06:08:14;;;;;;;1.57;0.90;;;9.30;99.90;;;;;;5092929;27;20234;-85
2021/04/27 06:10:39;;;;;;;2.13;0.73;;;9.00;99.90;;;;;;5110952;28;20224;-85
2021/04/27 06:13:06;;;;;;;0.93;0.90;;;9.00;99.90;;;;;;5095369;28;20736;-83
2021/04/27 06:15:32;;;;;;;0.57;0.57;;;9.10;99.90;;;;;;5094272;28;20192;-83
2021/04/27 06:17:57;;;;;;;0.70;0.70;;;9.00;99.90;;;;;;5111885;28;20705;-84
2021/04/27 06:20:23;;;;;;;1.00;0.88;;;9.60;99.90;;;;;;5094053;28;20191;-82
2021/04/27 06:22:48;;;;;;;1.02;0.90;;;9.70;99.90;;;;;;5092062;28;20207;-85
2021/04/27 06:25:14;;;;;;;0.97;0.80;;;9.90;99.20;;;;;;5112115;27;20184;-84
2021/04/27 06:27:40;;;;;;;1.10;1.00;;;9.90;99.50;;;;;;5094570;28;20664;-83
2021/04/27 06:30:07;;;;;;;1.10;0.90;;;9.90;97.70;;;;;;5113674;27;20282;-84
2021/04/27 06:32:33;;;;;;;0.83;0.80;;;10.10;98.40;;;;;;5092538;28;20202;-84
2021/04/27 06:34:59;;;;;;;2.07;1.10;;;9.80;97.80;;;;;;5095355;28;20180;-83
2021/04/27 06:37:25;;;;;;;1.47;1.23;;;9.30;98.30;;;;;;5113979;28;20183;-81
2021/04/27 06:39:51;;;;;;;1.47;0.83;;;8.50;98.70;;;;;;5096354;28;20221;-81
2021/04/27 06:42:17;;;;;;;1.30;0.87;;;8.00;99.90;;;;;;5107598;28;20202;-79
2021/04/27 06:44:43;;;;;;;0.80;0.70;;;8.00;99.90;;;;;;5131285;28;20186;-79
2021/04/27 06:47:09;;;;;;;1.50;1.13;;;7.70;99.90;;;;;;5114149;28;20255;-79
2021/04/27 06:49:36;;;;;;;0.90;0.90;;;7.70;99.90;;;;;;5132814;27;20160;-79
2021/04/27 06:52:03;;;;;;;1.13;0.80;;;7.50;99.90;;;;;;5114722;28;20215;-81
2021/04/27 06:54:29;;;;;;;1.30;1.20;;;7.50;99.90;;;;;;5093207;27;20184;-78
2021/04/27 06:56:54;;;;;;;2.20;1.10;;;7.50;99.90;;;;;;5109564;28;20188;-77
2021/04/27 06:59:21;;;;;;;1.80;0.83;;;7.40;99.90;;;;;;5110783;27;20320;-78
2021/04/27 07:01:48;;;;;;;1.43;1.00;;;7.40;99.90;;;;;;5091814;28;20704;-77
2021/04/27 07:04:14;;;;;;;1.93;0.73;;;7.60;99.90;;;;;;5108476;27;20223;-79
2021/04/27 07:06:39;;;;;;;1.07;0.90;;;7.50;99.90;;;;;;5107349;28;20187;-79
2021/04/27 07:09:05;;;;;;;1.47;0.83;;;7.60;99.90;;;;;;5108004;28;20188;-80
2021/04/27 07:11:31;;;;;;;1.03;0.73;;;7.60;99.90;;;;;;5091123;28;20200;-80
2021/04/27 07:14:00;;;;;;;1.17;0.90;;;7.80;99.90;;;;;;5111041;28;20225;-82
2021/04/27 07:16:26;;;;;;;1.37;1.10;;;7.80;99.90;;;;;;5090092;28;20200;-80
2021/04/27 07:18:52;;;;;;;0.90;0.77;;;7.70;99.90;;;;;;5092834;28;20564;-80
2021/04/27 07:21:20;;;;;;;1.07;0.97;;;7.60;99.90;;;;;;5089722;28;20211;-79
2021/04/27 07:23:46;;;;;;;0.87;0.70;;;7.60;99.90;;;;;;5091926;28;20188;-80
2021/04/27 07:26:11;;;;;;;0.70;0.60;;;7.60;99.90;;;;;;5109322;28;20191;-79
2021/04/27 07:28:37;;;;;;;1.00;0.90;;;7.80;99.90;;;;;;5108229;28;20248;-79
2021/04/27 07:31:02;;;;;;;1.10;1.00;;;8.10;99.90;;;;;;5090382;28;20291;-82
2021/04/27 07:33:28;;;;;;;1.07;0.80;;;8.30;99.90;;;;;;5090525;28;20200;-83
2021/04/27 07:35:53;;;;;;;0.93;0.73;;;8.30;99.90;;;;;;5110296;28;20540;-78
2021/04/27 07:38:19;;;;;;;2.00;1.03;;;8.20;99.90;;;;;;5110869;28;20184;-82
2021/04/27 07:40:45;;;;;;;1.07;0.90;;;8.30;99.90;;;;;;5091571;28;21052;-83
2021/04/27 07:43:10;;;;;;;1.67;1.10;;;8.30;99.90;;;;;;5110748;28;20191;-82
2021/04/27 07:45:36;;;;;;;0.83;0.80;;;8.30;99.60;;;;;;5091733;28;20184;-83
2021/04/27 07:48:05;;;;;;;1.10;1.00;;;8.40;99.60;;;;;;5110218;28;20183;-83
2021/04/27 07:50:31;;;;;;;0.70;0.70;;;8.30;98.50;;;;;;5101168;28;20184;-82
2021/04/27 07:52:57;;;;;;;2.50;1.57;;;8.30;99.10;;;;;;5089303;28;20361;-84
2021/04/27 07:55:22;;;;;;;2.30;1.37;;;8.50;99.70;;;;;;5091840;28;20184;-83
2021/04/27 07:57:49;;;;;;;1.47;0.90;;;8.70;99.00;;;;;;5105900;28;20259;-83
2021/04/27 08:00:16;;;;;;;0.90;0.63;;;8.90;97.10;;;;;;5105005;28;20215;-81
2021/04/27 08:02:42;;;;;;;1.90;1.20;;;8.90;98.20;;;;;;5107180;28;20227;-85
2021/04/27 08:05:10;;;;;;;1.03;0.77;;;9.00;98.60;;;;;;5106932;28;21007;-82
2021/04/27 08:07:36;;;;;;;0.90;0.77;;;9.30;98.10;;;;;;5086145;28;20191;-81
2021/04/27 08:10:04;;;;;;;1.60;1.20;;;9.30;97.50;;;;;;5089289;28;20184;-84
2021/04/27 08:12:29;;;;;;;0.97;0.83;;;9.50;95.60;;;;;;5095222;28;20196;-84
2021/04/27 08:14:55;;;;;;;2.63;1.10;;;9.40;96.10;;;;;;5106732;28;20191;-80
2021/04/27 08:17:22;;;;;;;0.80;0.80;;;9.60;96.40;;;;;;5106570;28;20211;-79
2021/04/27 08:19:48;;;;;;;1.60;0.90;;;9.80;96.00;;;;;;5107251;28;20198;-77
2021/04/27 08:22:14;;;;;;;0.83;0.83;;;9.90;96.30;;;;;;5106327;28;20211;-82
2021/04/27 08:24:44;;;;;;;0.97;0.80;;;10.10;95.00;;;;;;5108462;28;20184;-87
2021/04/27 08:27:12;;;;;;;2.90;1.10;;;10.20;93.90;;;;;;5090195;28;20191;-84
2021/04/27 08:29:38;;;;;;;0.77;0.77;;;10.20;93.50;;;;;;5092000;28;20176;-86
2021/04/27 08:32:04;;;;;;;0.77;0.60;;;10.30;93.40;;;;;;5095591;28;20256;-82
2021/04/27 08:34:29;;;;;;;0.70;0.70;;;10.40;92.40;;;;;;5101486;28;20200;-82
2021/04/27 08:36:56;;;;;;;1.80;1.07;;;10.40;91.90;;;;;;5093413;28;20199;-85
2021/04/27 08:39:22;;;;;;;1.67;0.80;;;10.60;91.70;;;;;;5088873;27;20321;-83
2021/04/27 08:41:48;;;;;;;1.03;0.90;;;10.60;91.40;;;;;;5089321;28;20299;-83
2021/04/27 08:44:14;;;;;;;1.03;0.80;;;10.60;90.50;;;;;;5090500;27;20188;-84
2021/04/27 08:46:40;;;;;;;1.93;1.17;;;10.90;90.60;;;;;;5108885;28;20192;-85
2021/04/27 08:49:05;;;;;;;1.93;1.13;;;11.00;89.30;;;;;;5087898;27;20184;-87
2021/04/27 08:51:31;;;;;;;1.17;0.80;;;10.80;87.10;;;;;;5089409;28;20801;-85
2021/04/27 08:53:57;;;;;;;1.20;0.60;;;10.90;88.90;;;;;;5089945;28;20208;-77
2021/04/27 08:56:24;;;;;;;0.80;0.70;;;11.00;87.50;;;;;;5091351;28;20183;-78
2021/04/27 08:58:52;;;;;;;1.30;0.83;;;10.90;85.60;;;;;;5111076;27;20757;-77
2021/04/27 09:01:18;;;;;;;5.90;0.77;;;10.80;84.30;;;;;;5111606;28;20203;-83
2021/04/27 09:03:50;;;;;;;3.40;0.70;;;10.90;83.60;;;;;;5109647;27;20185;-79
2021/04/27 09:06:19;;;;;;;2.77;1.53;;;11.00;84.50;;;;;;5092140;28;20195;-80
2021/04/27 09:08:47;;;;;;;1.93;1.00;;;11.00;82.60;;;;;;5110361;27;20233;-78
2021/04/27 09:11:31;;;;;;;2.80;0.97;;;10.90;80.60;;;;;;5109774;27;20204;-77
2021/04/27 09:14:09;;;;;;;1.33;0.83;;;10.60;77.20;;;;;;5109169;27;20227;-82
2021/04/27 09:16:36;;;;;;;2.73;1.03;;;10.80;80.80;;;;;;5106943;28;20195;-87
2021/04/27 09:19:03;;;;;;;0.63;0.60;;;10.90;78.00;;;;;;5088852;28;20549;-84
2021/04/27 09:21:38;;;;;;;1.17;0.60;;;10.80;81.40;;;;;;5089187;28;20203;-84
2021/04/27 09:24:12;;;;;;;1.30;0.90;;;10.90;79.60;;;;;;5108019;27;20657;-82
2021/04/27 09:26:40;;;;;;;1.03;0.80;;;11.10;77.50;;;;;;5088276;28;20184;-82
2021/04/27 09:29:05;;;;;;;0.97;0.77;;;11.00;76.70;;;;;;5089537;27;20184;-84
2021/04/27 09:31:37;;;;;;;0.63;0.63;;;11.20;73.40;;;;;;5089369;28;20268;-84
2021/04/27 09:34:29;;;;;;;0.93;0.90;;;11.20;75.40;;;;;;5086338;28;20716;-82
2021/04/27 09:37:07;;;;;;;1.13;0.50;;;11.10;74.50;;;;;;5087549;28;20531;-84
2021/04/27 09:39:32;;;;;;;0.93;0.70;;;11.10;74.40;;;;;;5107509;27;20176;-82
2021/04/27 09:42:05;;;;;;;1.03;0.60;;;11.30;74.90;;;;;;5088957;28;20539;-84
2021/04/27 09:44:40;;;;;;;0.70;0.70;;;11.30;73.20;;;;;;5089266;28;20180;-85
2021/04/27 09:47:14;;;;;;;0.97;0.90;;;11.40;74.10;;;;;;5088384;28;20987;-85
2021/04/27 09:49:40;;;;;;;1.00;0.80;;;11.40;72.00;;;;;;5107690;27;20214;-81
2021/04/27 09:52:09;;;;;;;1.17;0.93;;;11.60;74.30;;;;;;5107627;28;20623;-86
2021/04/27 09:54:34;;;;;;;1.63;0.90;;;11.90;71.50;;;;;;5089258;28;20169;-85
2021/04/27 09:57:00;;;;;;;1.40;1.17;;;11.80;69.10;;;;;;5090050;28;20187;-82
2021/04/27 09:59:28;;;;;;;1.03;0.70;;;11.80;69.80;;;;;;5094484;28;20189;-84
2021/04/27 10:01:56;;;;;;;0.70;0.70;;;12.00;69.50;;;;;;5092648;28;20613;-84
2021/04/27 10:04:26;;;;;;;1.00;0.90;;;11.80;71.80;;;;;;5111281;27;20188;-81
2021/04/27 10:06:52;;;;;;;1.17;0.80;;;11.90;71.20;;;;;;5108012;27;20204;-84
2021/04/27 10:09:19;;;;;;;1.30;1.10;;;12.30;72.60;;;;;;5089044;28;20180;-84
2021/04/27 10:11:45;;;;;;;1.53;1.10;;;12.30;72.20;;;;;;5107763;28;20202;-85
2021/04/27 10:14:11;;;;;;;1.40;0.93;;;12.50;70.60;;;;;;5107820;28;20215;-83
2021/04/27 10:16:38;;;;;;;0.97;0.83;;;12.50;70.20;;;;;;5085388;28;20198;-84
2021/04/27 10:19:05;;;;;;;1.03;0.73;;;12.70;72.40;;;;;;5108531;28;20213;-84
2021/04/27 10:21:32;;;;;;;1.53;0.80;;;12.70;68.10;;;;;;5106783;28;20641;-82
2021/04/27 10:24:00;;;;;;;0.80;0.80;;;12.70;69.00;;;;;;5090610;28;20612;-83
2021/04/27 10:26:29;;;;;;;1.23;0.80;;;12.70;67.60;;;;;;5086491;28;20187;-84
2021/04/27 10:28:58;;;;;;;1.00;0.90;;;12.60;65.00;;;;;;5089819;28;20196;-82
2021/04/27 10:31:24;;;;;;;1.00;0.90;;;12.70;65.10;;;;;;5108353;27;20215;-81
2021/04/27 10:34:09;;;;;;;1.50;1.40;;;12.70;65.70;;;;;;5109009;28;20249;-81
2021/04/27 10:36:39;;;;;;;0.73;0.60;;;12.60;67.40;;;;;;5110055;28;20176;-79
2021/04/27 10:39:08;;;;;;;0.80;0.77;;;12.90;66.70;;;;;;5115920;27;20199;-79
2021/04/27 10:41:47;;;;;;;0.90;0.90;;;13.00;63.30;;;;;;5117270;28;20204;-80
2021/04/27 10:44:15;;;;;;;1.00;0.70;;;13.00;66.30;;;;;;5112663;27;20194;-81
2021/04/27 10:46:40;;;;;;;0.77;0.70;;;13.20;64.70;;;;;;5111648;27;20188;-81
2021/04/27 10:49:16;;;;;;;1.13;0.70;;;13.10;60.60;;;;;;5113276;27;20473;-80
2021/04/27 10:51:42;;;;;;;0.60;0.60;;;12.90;61.90;;;;;;5111238;28;20486;-79
2021/04/27 10:54:18;;;;;;;1.77;1.05;;;13.00;63.30;;;;;;5111629;27;20689;-79
2021/04/27 10:56:45;;;;;;;0.90;0.80;;;13.00;62.30;;;;;;5093179;28;20282;-80
2021/04/27 10:59:16;;;;;;;1.73;0.77;;;12.80;60.20;;;;;;5115445;28;20195;-80
2021/04/27 11:01:44;;;;;;;0.67;0.67;;;12.70;59.50;;;;;;5098876;28;20688;-81
2021/04/27 11:04:27;;;;;;;2.20;1.20;;;13.00;62.10;;;;;;5099580;28;20555;-81
2021/04/27 11:07:19;;;;;;;1.13;0.80;;;12.90;60.50;;;;;;5118187;27;20238;-80
2021/04/27 11:10:06;;;;;;;0.90;0.57;;;12.70;58.50;;;;;;5077478;28;20211;-81
2021/04/27 11:12:44;;;;;;;1.05;0.80;;;12.90;63.00;;;;;;5116237;28;20631;-80
2021/04/27 11:15:24;;;;;;;0.60;0.60;;;12.90;62.00;;;;;;5116765;28;20164;-80
2021/04/27 11:18:02;;;;;;;2.35;1.17;;;13.20;62.00;;;;;;5116308;28;20184;-81
2021/04/27 11:21:17;;;;;;;1.15;1.00;;;13.00;59.30;;;;;;5115018;27;20985;-81
2021/04/27 11:23:46;;;;;;;1.67;0.60;;;13.10;62.10;;;;;;5078484;28;20196;-81
2021/04/27 11:26:34;;;;;;;0.90;0.80;;;13.40;60.20;;;;;;5115296;28;20195;-80
2021/04/27 11:29:13;;;;;;;2.20;1.10;;;13.30;58.80;;;;;;5115326;28;20215;-80
2021/04/27 11:32:14;;;;;;;0.70;0.70;;;13.20;59.70;;;;;;5115787;28;20233;-81
2021/04/27 11:34:50;;;;;;;1.13;0.70;;;13.60;61.60;;;;;;5110377;28;20205;-81
2021/04/27 11:37:22;;;;;;;0.87;0.80;;;13.70;60.50;;;;;;5108128;28;20183;-79
2021/04/27 11:39:47;;;;;;;1.05;0.70;;;13.50;57.30;;;;;;5089273;28;20176;-78
2021/04/27 11:42:21;;;;;;;1.10;0.80;;;13.60;58.70;;;;;;5107255;28;20708;-80
2021/04/27 11:44:47;;;;;;;0.90;0.90;;;13.60;56.30;;;;;;5106679;28;20180;-80
2021/04/27 11:47:17;;;;;;;0.70;0.70;;;13.50;58.80;;;;;;5107911;28;20195;-79
2021/04/27 11:49:46;;;;;;;0.97;0.83;;;13.30;58.80;;;;;;5107255;28;20237;-81
2021/04/27 11:52:13;;;;;;;0.80;0.80;;;13.10;57.90;;;;;;5107792;28;20284;-83
2021/04/27 11:54:39;;;;;;;1.97;1.10;;;12.80;57.60;;;;;;5108470;28;20195;-81
2021/04/27 11:57:16;;;;;;;0.80;0.80;;;12.60;62.80;;;;;;5108081;28;20230;-78
2021/04/27 11:59:42;;;;;;;1.20;1.10;;;12.30;61.00;;;;;;5105548;28;20236;-78
2021/04/27 12:02:12;;;;;;;1.13;0.87;;;12.30;61.10;;;;;;5117569;28;20564;-80
2021/04/27 12:04:37;;;;;;;1.10;1.00;;;12.40;62.90;;;;;;5116564;28;20179;-80
2021/04/27 12:07:04;;;;;;;1.17;0.80;;;12.70;64.10;;;;;;5117175;28;20191;-80
2021/04/27 12:09:41;;;;;;;1.00;0.80;;;12.80;59.20;;;;;;5092441;28;20176;-83
2021/04/27 12:12:08;;;;;;;1.00;0.90;;;12.80;60.20;;;;;;5109666;27;20208;-80
2021/04/27 12:14:34;;;;;;;1.10;1.00;;;13.20;60.80;;;;;;5091111;28;20478;-81
2021/04/27 12:17:00;;;;;;;1.57;0.90;;;13.30;58.70;;;;;;5109968;27;20207;-77
2021/04/27 12:19:28;;;;;;;1.00;0.90;;;13.60;60.90;;;;;;5109674;27;20202;-81
2021/04/27 12:22:04;;;;;;;1.00;0.90;;;13.50;60.30;;;;;;5110364;27;20200;-80
2021/04/27 12:24:35;;;;;;;1.00;0.68;;;13.50;59.30;;;;;;5091804;28;20183;-81
2021/04/27 12:27:11;;;;;;;1.00;0.90;;;13.80;63.30;;;;;;5112278;27;20184;-81
2021/04/27 12:29:52;;;;;;;1.00;0.90;;;13.80;60.80;;;;;;5100883;28;20559;-82
2021/04/27 12:32:25;;;;;;;1.25;0.90;;;13.80;60.00;;;;;;5112153;27;20341;-81
2021/04/27 12:35:10;;;;;;;1.50;1.20;;;13.70;60.00;;;;;;5110512;28;20176;-81
2021/04/27 12:37:44;;;;;;;1.00;0.90;;;13.60;59.20;;;;;;5112252;27;20187;-81
2021/04/27 12:40:13;;;;;;;0.85;0.85;;;13.50;60.20;;;;;;5094318;27;20180;-79
2021/04/27 12:42:51;;;;;;;1.10;0.80;;;13.70;60.00;;;;;;5111700;28;20212;-76
2021/04/27 12:45:17;;;;;;;1.47;1.20;;;13.50;57.90;;;;;;5093664;27;20192;-79
2021/04/27 12:47:49;;;;;;;1.25;1.15;;;13.50;59.80;;;;;;5111510;27;20176;-80
2021/04/27 12:50:20;;;;;;;1.17;1.07;;;13.60;59.50;;;;;;5112360;27;20188;-78
2021/04/27 12:53:03;;;;;;;1.92;0.90;;;13.30;59.20;;;;;;5111807;27;20204;-79
2021/04/27 12:55:31;;;;;;;1.05;0.95;;;13.60;60.10;;;;;;5114334;27;20180;-80